sensor_id;sensor_type;location;lat;lon;timestamp;temperature;humidity
43679;DHT22;29279;50.858;4.392;2024-02-21T00:01:15;9.70;99.90
43679;DHT22;29279;50.858;4.392;2024-02-21T00:03:41;9.70;99.90
43679;DHT22;29279;50.858;4.392;2024-02-21T00:06:07;9.70;99.90
43679;DHT22;29279;50.858;4.392;2024-02-21T00:08:33;9.70;99.90
43679;DHT22;29279;50.858;4.392;2024-02-21T00:11:00;9.70;99.90
43679;DHT22;29279;50.858;4.392;2024-02-21T00:13:27;9.70;99.90
43679;DHT22;29279;50.858;4.392;2024-02-21T00:15:53;9.80;99.90
43679;DHT22;29279;50.858;4.392;2024-02-21T00:18:18;9.80;99.90
43679;DHT22;29279;50.858;4.392;2024-02-21T00:20:44;9.80;99.90
43679;DHT22;29279;50.858;4.392;2024-02-21T00:23:10;9.80;99.90
43679;DHT22;29279;50.858;4.392;2024-02-21T00:25:36;9.80;99.90
43679;DHT22;29279;50.858;4.392;2024-02-21T00:28:02;9.80;99.90
43679;DHT22;29279;50.858;4.392;2024-02-21T00:30:28;9.90;99.90
43679;DHT22;29279;50.858;4.392;2024-02-21T00:32:54;9.90;99.90
43679;DHT22;29279;50.858;4.392;2024-02-21T00:35:21;9.90;99.90
43679;DHT22;29279;50.858;4.392;2024-02-21T00:37:47;9.90;99.90
43679;DHT22;29279;50.858;4.392;2024-02-21T00:40:12;9.90;99.90
43679;DHT22;29279;50.858;4.392;2024-02-21T00:42:41;9.90;99.90
43679;DHT22;29279;50.858;4.392;2024-02-21T00:45:07;9.90;99.90
43679;DHT22;29279;50.858;4.392;2024-02-21T00:47:33;10.00;99.90
43679;DHT22;29279;50.858;4.392;2024-02-21T00:49:59;10.00;99.90
43679;DHT22;29279;50.858;4.392;2024-02-21T00:52:26;10.10;99.90
43679;DHT22;29279;50.858;4.392;2024-02-21T00:54:52;10.10;99.90
43679;DHT22;29279;50.858;4.392;2024-02-21T00:57:17;10.10;99.90
43679;DHT22;29279;50.858;4.392;2024-02-21T00:59:44;10.10;99.90
43679;DHT22;29279;50.858;4.392;2024-02-21T01:02:10;10.10;99.90
43679;DHT22;29279;50.858;4.392;2024-02-21T01:04:38;9.90;99.90
43679;DHT22;29279;50.858;4.392;2024-02-21T01:07:04;9.80;99.90
43679;DHT22;29279;50.858;4.392;2024-02-21T01:09:30;9.90;99.90
43679;DHT22;29279;50.858;4.392;2024-02-21T01:11:55;9.90;99.90
43679;DHT22;29279;50.858;4.392;2024-02-21T01:14:22;10.00;99.90
43679;DHT22;29279;50.858;4.392;2024-02-21T01:16:55;10.00;99.90
43679;DHT22;29279;50.858;4.392;2024-02-21T01:19:21;9.90;99.90
43679;DHT22;29279;50.858;4.392;2024-02-21T01:21:46;9.90;99.90
43679;DHT22;29279;50.858;4.392;2024-02-21T01:24:15;9.80;99.90
43679;DHT22;29279;50.858;4.392;2024-02-21T01:26:42;9.90;99.90
43679;DHT22;29279;50.858;4.392;2024-02-21T01:29:08;9.90;99.90
43679;DHT22;29279;50.858;4.392;2024-02-21T01:31:33;9.80;99.90
43679;DHT22;29279;50.858;4.392;2024-02-21T01:33:59;9.80;99.90
43679;DHT22;29279;50.858;4.392;2024-02-21T01:36:26;9.80;99.90
43679;DHT22;29279;50.858;4.392;2024-02-21T01:38:53;9.80;99.90
43679;DHT22;29279;50.858;4.392;2024-02-21T01:41:19;9.80;99.90
43679;DHT22;29279;50.858;4.392;2024-02-21T01:43:44;9.70;99.90
43679;DHT22;29279;50.858;4.392;2024-02-21T01:46:10;9.80;99.90
43679;DHT22;29279;50.858;4.392;2024-02-21T01:48:36;9.80;99.90
43679;DHT22;29279;50.858;4.392;2024-02-21T01:51:04;9.90;99.90
43679;DHT22;29279;50.858;4.392;2024-02-21T01:53:35;9.80;99.90
43679;DHT22;29279;50.858;4.392;2024-02-21T01:56:03;9.80;99.90
43679;DHT22;29279;50.858;4.392;2024-02-21T01:58:33;9.70;99.90
43679;DHT22;29279;50.858;4.392;2024-02-21T02:01:02;9.60;99.90
43679;DHT22;29279;50.858;4.392;2024-02-21T02:03:28;9.70;99.90
43679;DHT22;29279;50.858;4.392;2024-02-21T02:05:55;9.70;99.90
43679;DHT22;29279;50.858;4.392;2024-02-21T02:08:21;9.70;99.90
43679;DHT22;29279;50.858;4.392;2024-02-21T02:10:48;9.70;99.90
43679;DHT22;29279;50.858;4.392;2024-02-21T02:13:14;9.80;99.90
43679;DHT22;29279;50.858;4.392;2024-02-21T02:18:06;9.80;99.90
43679;DHT22;29279;50.858;4.392;2024-02-21T02:20:32;9.80;99.90
43679;DHT22;29279;50.858;4.392;2024-02-21T02:22:59;9.80;99.90
43679;DHT22;29279;50.858;4.392;2024-02-21T02:25:26;9.80;99.90
43679;DHT22;29279;50.858;4.392;2024-02-21T02:27:52;9.80;99.90
43679;DHT22;29279;50.858;4.392;2024-02-21T02:30:18;9.70;99.90
43679;DHT22;29279;50.858;4.392;2024-02-21T02:32:46;9.80;99.90
43679;DHT22;29279;50.858;4.392;2024-02-21T02:35:13;9.80;99.90
43679;DHT22;29279;50.858;4.392;2024-02-21T02:37:38;9.90;99.90
43679;DHT22;29279;50.858;4.392;2024-02-21T02:40:06;9.90;99.90
43679;DHT22;29279;50.858;4.392;2024-02-21T02:42:31;9.90;99.90
43679;DHT22;29279;50.858;4.392;2024-02-21T02:44:57;9.90;99.90
43679;DHT22;29279;50.858;4.392;2024-02-21T02:47:23;10.00;99.90
43679;DHT22;29279;50.858;4.392;2024-02-21T02:49:49;10.10;99.90
43679;DHT22;29279;50.858;4.392;2024-02-21T02:52:17;10.00;99.90
43679;DHT22;29279;50.858;4.392;2024-02-21T02:54:43;10.00;99.90
43679;DHT22;29279;50.858;4.392;2024-02-21T02:57:09;10.10;99.90
43679;DHT22;29279;50.858;4.392;2024-02-21T02:59:35;10.10;99.90
43679;DHT22;29279;50.858;4.392;2024-02-21T03:02:01;10.00;99.90
43679;DHT22;29279;50.858;4.392;2024-02-21T03:04:26;10.10;99.90
43679;DHT22;29279;50.858;4.392;2024-02-21T03:06:53;10.10;99.90
43679;DHT22;29279;50.858;4.392;2024-02-21T03:09:19;10.00;99.90
43679;DHT22;29279;50.858;4.392;2024-02-21T03:11:44;10.10;99.90
43679;DHT22;29279;50.858;4.392;2024-02-21T03:14:10;10.10;99.90
43679;DHT22;29279;50.858;4.392;2024-02-21T03:16:36;9.90;99.90
43679;DHT22;29279;50.858;4.392;2024-02-21T03:19:02;9.90;99.90
43679;DHT22;29279;50.858;4.392;2024-02-21T03:21:28;10.00;99.90
43679;DHT22;29279;50.858;4.392;2024-02-21T03:23:54;9.90;99.90
43679;DHT22;29279;50.858;4.392;2024-02-21T03:26:20;9.90;99.90
43679;DHT22;29279;50.858;4.392;2024-02-21T03:28:45;9.90;99.90
43679;DHT22;29279;50.858;4.392;2024-02-21T03:31:12;9.90;99.90
43679;DHT22;29279;50.858;4.392;2024-02-21T03:33:40;9.90;99.90
43679;DHT22;29279;50.858;4.392;2024-02-21T03:36:05;9.90;99.90
43679;DHT22;29279;50.858;4.392;2024-02-21T03:38:31;9.80;99.90
43679;DHT22;29279;50.858;4.392;2024-02-21T03:40:57;9.80;99.90
43679;DHT22;29279;50.858;4.392;2024-02-21T03:43:22;9.80;99.90
43679;DHT22;29279;50.858;4.392;2024-02-21T03:45:49;9.90;99.90
43679;DHT22;29279;50.858;4.392;2024-02-21T03:48:14;10.00;99.90
43679;DHT22;29279;50.858;4.392;2024-02-21T03:50:40;10.10;99.90
43679;DHT22;29279;50.858;4.392;2024-02-21T03:53:05;10.00;99.90
43679;DHT22;29279;50.858;4.392;2024-02-21T03:55:31;10.10;99.90
43679;DHT22;29279;50.858;4.392;2024-02-21T03:57:57;10.00;99.90
43679;DHT22;29279;50.858;4.392;2024-02-21T04:00:23;10.00;99.90
43679;DHT22;29279;50.858;4.392;2024-02-21T04:02:49;9.90;99.90
43679;DHT22;29279;50.858;4.392;2024-02-21T04:05:16;10.00;99.90
43679;DHT22;29279;50.858;4.392;2024-02-21T04:07:42;10.10;99.90
43679;DHT22;29279;50.858;4.392;2024-02-21T04:10:08;10.10;99.90
43679;DHT22;29279;50.858;4.392;2024-02-21T04:12:34;10.10;99.90
43679;DHT22;29279;50.858;4.392;2024-02-21T04:14:59;10.20;99.90
43679;DHT22;29279;50.858;4.392;2024-02-21T04:17:25;10.20;99.90
43679;DHT22;29279;50.858;4.392;2024-02-21T04:20:01;10.20;99.90
43679;DHT22;29279;50.858;4.392;2024-02-21T04:22:27;10.10;99.90
43679;DHT22;29279;50.858;4.392;2024-02-21T04:24:53;10.10;99.90
43679;DHT22;29279;50.858;4.392;2024-02-21T04:27:19;10.10;99.90
43679;DHT22;29279;50.858;4.392;2024-02-21T04:29:44;10.00;99.90
43679;DHT22;29279;50.858;4.392;2024-02-21T04:32:10;10.00;99.90
43679;DHT22;29279;50.858;4.392;2024-02-21T04:34:35;9.80;99.90
43679;DHT22;29279;50.858;4.392;2024-02-21T04:37:01;9.80;99.90
43679;DHT22;29279;50.858;4.392;2024-02-21T04:39:27;9.70;99.90
43679;DHT22;29279;50.858;4.392;2024-02-21T04:41:52;9.70;99.90
43679;DHT22;29279;50.858;4.392;2024-02-21T04:44:18;9.70;99.90
43679;DHT22;29279;50.858;4.392;2024-02-21T04:46:47;9.80;99.90
43679;DHT22;29279;50.858;4.392;2024-02-21T04:49:12;9.80;99.90
43679;DHT22;29279;50.858;4.392;2024-02-21T04:51:40;9.80;99.90
43679;DHT22;29279;50.858;4.392;2024-02-21T04:54:06;9.70;99.90
43679;DHT22;29279;50.858;4.392;2024-02-21T04:56:31;9.70;99.90
43679;DHT22;29279;50.858;4.392;2024-02-21T04:58:57;9.80;99.90
43679;DHT22;29279;50.858;4.392;2024-02-21T05:01:23;9.80;99.90
43679;DHT22;29279;50.858;4.392;2024-02-21T05:03:49;9.80;99.90
43679;DHT22;29279;50.858;4.392;2024-02-21T05:06:14;9.90;99.90
43679;DHT22;29279;50.858;4.392;2024-02-21T05:08:40;9.80;99.90
43679;DHT22;29279;50.858;4.392;2024-02-21T05:11:06;9.80;99.90
43679;DHT22;29279;50.858;4.392;2024-02-21T05:13:32;9.70;99.90
43679;DHT22;29279;50.858;4.392;2024-02-21T05:15:58;9.80;99.90
43679;DHT22;29279;50.858;4.392;2024-02-21T05:18:27;9.90;99.90
43679;DHT22;29279;50.858;4.392;2024-02-21T05:20:53;9.90;99.90
43679;DHT22;29279;50.858;4.392;2024-02-21T05:23:19;9.80;99.90
43679;DHT22;29279;50.858;4.392;2024-02-21T05:25:44;9.80;99.90
43679;DHT22;29279;50.858;4.392;2024-02-21T05:28:10;9.80;99.90
43679;DHT22;29279;50.858;4.392;2024-02-21T05:30:36;10.00;99.90
43679;DHT22;29279;50.858;4.392;2024-02-21T05:33:07;10.10;99.90
43679;DHT22;29279;50.858;4.392;2024-02-21T05:35:34;10.00;99.90
43679;DHT22;29279;50.858;4.392;2024-02-21T05:38:00;9.90;99.90
43679;DHT22;29279;50.858;4.392;2024-02-21T05:40:26;9.90;99.90
43679;DHT22;29279;50.858;4.392;2024-02-21T05:42:52;9.80;99.90
43679;DHT22;29279;50.858;4.392;2024-02-21T05:45:18;9.70;99.90
43679;DHT22;29279;50.858;4.392;2024-02-21T05:47:44;9.70;99.90
43679;DHT22;29279;50.858;4.392;2024-02-21T05:50:10;9.70;99.90
43679;DHT22;29279;50.858;4.392;2024-02-21T05:52:36;9.60;99.90
43679;DHT22;29279;50.858;4.392;2024-02-21T05:55:03;9.60;99.90
43679;DHT22;29279;50.858;4.392;2024-02-21T05:57:28;9.70;99.90
43679;DHT22;29279;50.858;4.392;2024-02-21T05:59:54;9.70;99.90
43679;DHT22;29279;50.858;4.392;2024-02-21T06:02:20;9.80;99.90
43679;DHT22;29279;50.858;4.392;2024-02-21T06:04:46;9.80;99.90
43679;DHT22;29279;50.858;4.392;2024-02-21T06:07:12;9.80;99.90
43679;DHT22;29279;50.858;4.392;2024-02-21T06:09:37;9.80;99.90
43679;DHT22;29279;50.858;4.392;2024-02-21T06:12:03;9.80;99.90
43679;DHT22;29279;50.858;4.392;2024-02-21T06:14:29;9.90;99.90
43679;DHT22;29279;50.858;4.392;2024-02-21T06:16:55;9.80;99.90
43679;DHT22;29279;50.858;4.392;2024-02-21T06:19:20;9.70;99.90
43679;DHT22;29279;50.858;4.392;2024-02-21T06:21:46;9.80;99.90
43679;DHT22;29279;50.858;4.392;2024-02-21T06:24:11;9.80;99.90
43679;DHT22;29279;50.858;4.392;2024-02-21T06:26:38;9.80;99.90
43679;DHT22;29279;50.858;4.392;2024-02-21T06:29:05;9.90;99.90
43679;DHT22;29279;50.858;4.392;2024-02-21T06:31:31;9.80;99.90
43679;DHT22;29279;50.858;4.392;2024-02-21T06:33:57;9.80;99.90
43679;DHT22;29279;50.858;4.392;2024-02-21T06:36:23;9.80;99.90
43679;DHT22;29279;50.858;4.392;2024-02-21T06:38:48;9.70;99.90
43679;DHT22;29279;50.858;4.392;2024-02-21T06:41:15;9.60;99.90
43679;DHT22;29279;50.858;4.392;2024-02-21T06:43:41;9.70;99.90
43679;DHT22;29279;50.858;4.392;2024-02-21T06:46:07;9.70;99.90
43679;DHT22;29279;50.858;4.392;2024-02-21T06:48:32;9.80;99.90
43679;DHT22;29279;50.858;4.392;2024-02-21T06:50:58;9.80;99.90
43679;DHT22;29279;50.858;4.392;2024-02-21T06:53:24;9.80;99.90
43679;DHT22;29279;50.858;4.392;2024-02-21T06:55:50;9.70;99.90
43679;DHT22;29279;50.858;4.392;2024-02-21T06:58:15;9.80;99.90
43679;DHT22;29279;50.858;4.392;2024-02-21T07:00:42;9.70;99.90
43679;DHT22;29279;50.858;4.392;2024-02-21T07:03:08;9.70;99.90
43679;DHT22;29279;50.858;4.392;2024-02-21T07:05:34;9.70;99.90
43679;DHT22;29279;50.858;4.392;2024-02-21T07:08:00;9.60;99.90
43679;DHT22;29279;50.858;4.392;2024-02-21T07:10:25;9.50;99.90
43679;DHT22;29279;50.858;4.392;2024-02-21T07:12:53;9.50;99.90
43679;DHT22;29279;50.858;4.392;2024-02-21T07:15:18;9.50;99.90
43679;DHT22;29279;50.858;4.392;2024-02-21T07:17:44;9.50;99.90
43679;DHT22;29279;50.858;4.392;2024-02-21T07:20:10;9.50;99.90
43679;DHT22;29279;50.858;4.392;2024-02-21T07:22:36;9.50;99.90
43679;DHT22;29279;50.858;4.392;2024-02-21T07:25:01;9.50;99.90
43679;DHT22;29279;50.858;4.392;2024-02-21T07:27:27;9.50;99.90
43679;DHT22;29279;50.858;4.392;2024-02-21T07:29:54;9.50;99.90
43679;DHT22;29279;50.858;4.392;2024-02-21T07:32:19;9.40;99.90
43679;DHT22;29279;50.858;4.392;2024-02-21T07:34:45;9.50;99.90
43679;DHT22;29279;50.858;4.392;2024-02-21T07:37:11;9.40;99.90
43679;DHT22;29279;50.858;4.392;2024-02-21T07:39:36;9.40;99.90
43679;DHT22;29279;50.858;4.392;2024-02-21T07:42:05;9.40;99.90
43679;DHT22;29279;50.858;4.392;2024-02-21T07:44:31;9.50;99.90
43679;DHT22;29279;50.858;4.392;2024-02-21T07:46:58;9.40;99.90
43679;DHT22;29279;50.858;4.392;2024-02-21T07:49:24;9.40;99.90
43679;DHT22;29279;50.858;4.392;2024-02-21T07:51:50;9.40;99.90
43679;DHT22;29279;50.858;4.392;2024-02-21T07:54:15;9.40;99.90
43679;DHT22;29279;50.858;4.392;2024-02-21T07:56:41;9.50;99.90
43679;DHT22;29279;50.858;4.392;2024-02-21T07:59:07;9.50;99.90
43679;DHT22;29279;50.858;4.392;2024-02-21T08:01:33;9.40;99.90
43679;DHT22;29279;50.858;4.392;2024-02-21T08:03:59;9.50;99.90
43679;DHT22;29279;50.858;4.392;2024-02-21T08:06:25;9.50;99.90
43679;DHT22;29279;50.858;4.392;2024-02-21T08:08:50;9.60;99.90
43679;DHT22;29279;50.858;4.392;2024-02-21T08:11:16;9.50;99.90
43679;DHT22;29279;50.858;4.392;2024-02-21T08:13:42;9.70;99.90
43679;DHT22;29279;50.858;4.392;2024-02-21T08:16:09;9.70;99.90
43679;DHT22;29279;50.858;4.392;2024-02-21T08:18:35;9.70;99.90
43679;DHT22;29279;50.858;4.392;2024-02-21T08:21:03;9.60;99.90
43679;DHT22;29279;50.858;4.392;2024-02-21T08:23:29;9.70;99.90
43679;DHT22;29279;50.858;4.392;2024-02-21T08:25:55;9.70;99.90
43679;DHT22;29279;50.858;4.392;2024-02-21T08:28:20;9.60;99.90
43679;DHT22;29279;50.858;4.392;2024-02-21T08:30:46;9.60;99.90
43679;DHT22;29279;50.858;4.392;2024-02-21T08:33:15;9.80;99.90
43679;DHT22;29279;50.858;4.392;2024-02-21T08:35:42;9.70;99.90
43679;DHT22;29279;50.858;4.392;2024-02-21T08:38:08;9.70;99.90
43679;DHT22;29279;50.858;4.392;2024-02-21T08:40:33;9.70;99.90
43679;DHT22;29279;50.858;4.392;2024-02-21T08:43:00;9.70;99.90
43679;DHT22;29279;50.858;4.392;2024-02-21T08:45:26;9.70;99.90
43679;DHT22;29279;50.858;4.392;2024-02-21T08:47:52;9.80;99.90
43679;DHT22;29279;50.858;4.392;2024-02-21T08:50:17;9.70;99.90
43679;DHT22;29279;50.858;4.392;2024-02-21T08:52:43;9.80;99.90
43679;DHT22;29279;50.858;4.392;2024-02-21T08:55:09;9.80;99.90
43679;DHT22;29279;50.858;4.392;2024-02-21T08:57:35;9.90;99.90
43679;DHT22;29279;50.858;4.392;2024-02-21T09:00:04;9.90;99.90
43679;DHT22;29279;50.858;4.392;2024-02-21T09:02:36;10.00;99.90
43679;DHT22;29279;50.858;4.392;2024-02-21T09:05:02;10.00;99.90
43679;DHT22;29279;50.858;4.392;2024-02-21T09:07:30;10.10;99.90
43679;DHT22;29279;50.858;4.392;2024-02-21T09:09:56;10.00;99.90
43679;DHT22;29279;50.858;4.392;2024-02-21T09:12:22;10.00;99.90
43679;DHT22;29279;50.858;4.392;2024-02-21T09:14:47;10.10;99.90
43679;DHT22;29279;50.858;4.392;2024-02-21T09:17:16;10.20;99.90
43679;DHT22;29279;50.858;4.392;2024-02-21T09:19:43;10.10;99.90
43679;DHT22;29279;50.858;4.392;2024-02-21T09:22:09;10.10;99.90
43679;DHT22;29279;50.858;4.392;2024-02-21T09:24:35;10.00;99.90
43679;DHT22;29279;50.858;4.392;2024-02-21T09:27:01;10.00;99.90
43679;DHT22;29279;50.858;4.392;2024-02-21T09:29:26;10.00;99.90
43679;DHT22;29279;50.858;4.392;2024-02-21T09:31:52;10.00;99.90
43679;DHT22;29279;50.858;4.392;2024-02-21T09:34:18;9.90;99.90
43679;DHT22;29279;50.858;4.392;2024-02-21T09:36:44;10.00;99.90
43679;DHT22;29279;50.858;4.392;2024-02-21T09:39:10;10.00;99.90
43679;DHT22;29279;50.858;4.392;2024-02-21T09:41:53;10.10;99.90
43679;DHT22;29279;50.858;4.392;2024-02-21T09:44:24;10.20;99.90
43679;DHT22;29279;50.858;4.392;2024-02-21T09:47:07;10.20;99.90
43679;DHT22;29279;50.858;4.392;2024-02-21T09:49:35;10.30;99.90
43679;DHT22;29279;50.858;4.392;2024-02-21T09:52:06;10.30;99.90
43679;DHT22;29279;50.858;4.392;2024-02-21T09:54:35;10.20;99.90
43679;DHT22;29279;50.858;4.392;2024-02-21T09:57:08;10.20;99.90
43679;DHT22;29279;50.858;4.392;2024-02-21T09:59:37;10.30;99.90
43679;DHT22;29279;50.858;4.392;2024-02-21T10:02:03;10.40;99.90
43679;DHT22;29279;50.858;4.392;2024-02-21T10:04:31;10.40;99.90
43679;DHT22;29279;50.858;4.392;2024-02-21T10:07:23;10.40;99.90
43679;DHT22;29279;50.858;4.392;2024-02-21T10:10:06;10.50;99.90
43679;DHT22;29279;50.858;4.392;2024-02-21T10:12:51;10.50;99.90
43679;DHT22;29279;50.858;4.392;2024-02-21T10:15:41;10.60;99.90
43679;DHT22;29279;50.858;4.392;2024-02-21T10:18:08;10.60;99.90
43679;DHT22;29279;50.858;4.392;2024-02-21T10:21:08;10.60;99.90
43679;DHT22;29279;50.858;4.392;2024-02-21T10:23:52;10.70;99.90
43679;DHT22;29279;50.858;4.392;2024-02-21T10:26:19;10.70;99.90
43679;DHT22;29279;50.858;4.392;2024-02-21T10:28:47;10.80;99.90
43679;DHT22;29279;50.858;4.392;2024-02-21T10:31:29;10.80;99.90
43679;DHT22;29279;50.858;4.392;2024-02-21T10:34:02;10.80;99.90
43679;DHT22;29279;50.858;4.392;2024-02-21T10:36:32;10.80;99.90
43679;DHT22;29279;50.858;4.392;2024-02-21T10:39:00;10.90;99.90
43679;DHT22;29279;50.858;4.392;2024-02-21T10:41:28;10.90;99.90
43679;DHT22;29279;50.858;4.392;2024-02-21T10:44:05;11.00;99.90
43679;DHT22;29279;50.858;4.392;2024-02-21T10:46:42;11.00;99.90
43679;DHT22;29279;50.858;4.392;2024-02-21T10:49:20;11.00;99.90
43679;DHT22;29279;50.858;4.392;2024-02-21T10:51:49;11.10;99.90
43679;DHT22;29279;50.858;4.392;2024-02-21T10:54:43;11.10;99.90
43679;DHT22;29279;50.858;4.392;2024-02-21T10:57:12;11.10;99.90
43679;DHT22;29279;50.858;4.392;2024-02-21T10:59:40;11.20;99.90
43679;DHT22;29279;50.858;4.392;2024-02-21T11:02:12;11.20;99.90
43679;DHT22;29279;50.858;4.392;2024-02-21T11:04:40;11.20;99.90
43679;DHT22;29279;50.858;4.392;2024-02-21T11:07:07;11.20;99.90
43679;DHT22;29279;50.858;4.392;2024-02-21T11:09:34;11.10;99.90
43679;DHT22;29279;50.858;4.392;2024-02-21T11:12:05;11.00;99.90
43679;DHT22;29279;50.858;4.392;2024-02-21T11:14:48;11.00;99.90
43679;DHT22;29279;50.858;4.392;2024-02-21T11:17:18;10.90;99.90
43679;DHT22;29279;50.858;4.392;2024-02-21T11:19:44;10.90;99.90
43679;DHT22;29279;50.858;4.392;2024-02-21T11:22:20;10.90;99.90
43679;DHT22;29279;50.858;4.392;2024-02-21T11:24:52;10.80;99.90
43679;DHT22;29279;50.858;4.392;2024-02-21T11:27:33;10.70;99.90
43679;DHT22;29279;50.858;4.392;2024-02-21T11:30:03;10.80;99.90
43679;DHT22;29279;50.858;4.392;2024-02-21T11:32:31;10.80;99.90
43679;DHT22;29279;50.858;4.392;2024-02-21T11:35:04;10.70;99.90
43679;DHT22;29279;50.858;4.392;2024-02-21T11:37:33;10.60;99.90
43679;DHT22;29279;50.858;4.392;2024-02-21T11:40:02;10.60;99.90
43679;DHT22;29279;50.858;4.392;2024-02-21T11:42:30;10.60;99.90
43679;DHT22;29279;50.858;4.392;2024-02-21T11:44:56;10.70;99.90
43679;DHT22;29279;50.858;4.392;2024-02-21T11:47:23;10.70;99.90
43679;DHT22;29279;50.858;4.392;2024-02-21T11:49:49;10.70;99.90
43679;DHT22;29279;50.858;4.392;2024-02-21T11:52:21;10.60;99.90
43679;DHT22;29279;50.858;4.392;2024-02-21T11:54:51;10.60;99.90
43679;DHT22;29279;50.858;4.392;2024-02-21T11:57:18;10.50;99.90
43679;DHT22;29279;50.858;4.392;2024-02-21T11:59:44;10.60;99.90
43679;DHT22;29279;50.858;4.392;2024-02-21T12:02:12;10.50;99.90
43679;DHT22;29279;50.858;4.392;2024-02-21T12:04:38;10.60;99.90
43679;DHT22;29279;50.858;4.392;2024-02-21T12:07:04;10.50;99.90
43679;DHT22;29279;50.858;4.392;2024-02-21T12:09:31;10.60;99.90
43679;DHT22;29279;50.858;4.392;2024-02-21T12:12:19;10.60;99.90
43679;DHT22;29279;50.858;4.392;2024-02-21T12:14:46;10.70;99.90
43679;DHT22;29279;50.858;4.392;2024-02-21T12:17:12;10.60;99.90
43679;DHT22;29279;50.858;4.392;2024-02-21T12:19:38;10.60;99.90
43679;DHT22;29279;50.858;4.392;2024-02-21T12:22:05;10.60;99.90
43679;DHT22;29279;50.858;4.392;2024-02-21T12:24:32;10.50;99.90
43679;DHT22;29279;50.858;4.392;2024-02-21T12:26:58;10.50;99.90
43679;DHT22;29279;50.858;4.392;2024-02-21T12:29:25;10.40;99.90
43679;DHT22;29279;50.858;4.392;2024-02-21T12:31:51;10.40;99.90
43679;DHT22;29279;50.858;4.392;2024-02-21T12:34:17;10.40;99.90
43679;DHT22;29279;50.858;4.392;2024-02-21T12:36:44;10.50;99.90
43679;DHT22;29279;50.858;4.392;2024-02-21T12:39:16;10.50;99.90
43679;DHT22;29279;50.858;4.392;2024-02-21T12:41:43;10.60;99.90
43679;DHT22;29279;50.858;4.392;2024-02-21T12:44:11;10.60;99.90
43679;DHT22;29279;50.858;4.392;2024-02-21T12:46:40;10.60;99.90
43679;DHT22;29279;50.858;4.392;2024-02-21T12:49:07;10.60;99.90
43679;DHT22;29279;50.858;4.392;2024-02-21T12:51:38;10.70;99.90
43679;DHT22;29279;50.858;4.392;2024-02-21T12:54:05;10.60;99.90
43679;DHT22;29279;50.858;4.392;2024-02-21T12:56:30;10.60;99.90
43679;DHT22;29279;50.858;4.392;2024-02-21T12:58:57;10.70;99.90
43679;DHT22;29279;50.858;4.392;2024-02-21T13:01:23;10.70;99.90
43679;DHT22;29279;50.858;4.392;2024-02-21T13:03:48;10.70;99.90
43679;DHT22;29279;50.858;4.392;2024-02-21T13:06:14;10.70;99.90
43679;DHT22;29279;50.858;4.392;2024-02-21T13:08:40;10.70;99.90
43679;DHT22;29279;50.858;4.392;2024-02-21T13:11:06;10.80;99.90
43679;DHT22;29279;50.858;4.392;2024-02-21T13:13:32;10.80;99.90
43679;DHT22;29279;50.858;4.392;2024-02-21T13:15:59;10.80;99.90
43679;DHT22;29279;50.858;4.392;2024-02-21T13:18:25;11.00;99.90
43679;DHT22;29279;50.858;4.392;2024-02-21T13:20:58;11.10;99.90
43679;DHT22;29279;50.858;4.392;2024-02-21T13:23:24;11.10;99.90
43679;DHT22;29279;50.858;4.392;2024-02-21T13:25:51;11.10;99.90
43679;DHT22;29279;50.858;4.392;2024-02-21T13:28:18;11.10;99.90
43679;DHT22;29279;50.858;4.392;2024-02-21T13:30:44;11.10;99.90
43679;DHT22;29279;50.858;4.392;2024-02-21T13:33:10;11.00;99.90
43679;DHT22;29279;50.858;4.392;2024-02-21T13:35:36;10.90;99.90
43679;DHT22;29279;50.858;4.392;2024-02-21T13:38:04;10.90;99.90
43679;DHT22;29279;50.858;4.392;2024-02-21T13:40:30;10.80;99.90
43679;DHT22;29279;50.858;4.392;2024-02-21T13:42:56;10.70;99.90
43679;DHT22;29279;50.858;4.392;2024-02-21T13:45:23;10.60;99.90
43679;DHT22;29279;50.858;4.392;2024-02-21T13:47:49;10.60;99.90
43679;DHT22;29279;50.858;4.392;2024-02-21T13:50:15;10.50;99.90
43679;DHT22;29279;50.858;4.392;2024-02-21T13:52:41;10.50;99.90
43679;DHT22;29279;50.858;4.392;2024-02-21T13:55:07;10.40;99.90
43679;DHT22;29279;50.858;4.392;2024-02-21T13:57:35;10.20;99.90
43679;DHT22;29279;50.858;4.392;2024-02-21T14:00:01;10.10;99.90
43679;DHT22;29279;50.858;4.392;2024-02-21T14:02:28;10.00;99.90
43679;DHT22;29279;50.858;4.392;2024-02-21T14:04:56;10.10;99.90
43679;DHT22;29279;50.858;4.392;2024-02-21T14:07:21;10.10;99.90
43679;DHT22;29279;50.858;4.392;2024-02-21T14:09:47;10.00;99.90
43679;DHT22;29279;50.858;4.392;2024-02-21T14:12:13;9.90;99.90
43679;DHT22;29279;50.858;4.392;2024-02-21T14:14:40;9.90;99.90
43679;DHT22;29279;50.858;4.392;2024-02-21T14:17:08;9.90;99.90
43679;DHT22;29279;50.858;4.392;2024-02-21T14:19:34;10.00;99.90
43679;DHT22;29279;50.858;4.392;2024-02-21T14:21:59;10.00;99.90
43679;DHT22;29279;50.858;4.392;2024-02-21T14:24:25;9.90;99.90
43679;DHT22;29279;50.858;4.392;2024-02-21T14:26:53;9.80;99.90
43679;DHT22;29279;50.858;4.392;2024-02-21T14:29:19;9.80;99.90
43679;DHT22;29279;50.858;4.392;2024-02-21T14:31:44;9.60;99.90
43679;DHT22;29279;50.858;4.392;2024-02-21T14:34:10;9.50;99.90
43679;DHT22;29279;50.858;4.392;2024-02-21T14:36:36;9.60;99.90
43679;DHT22;29279;50.858;4.392;2024-02-21T14:39:01;9.60;99.90
43679;DHT22;29279;50.858;4.392;2024-02-21T14:41:28;9.60;99.90
43679;DHT22;29279;50.858;4.392;2024-02-21T14:43:56;9.70;99.90
43679;DHT22;29279;50.858;4.392;2024-02-21T14:46:25;9.70;99.90
43679;DHT22;29279;50.858;4.392;2024-02-21T14:48:54;9.60;99.90
43679;DHT22;29279;50.858;4.392;2024-02-21T14:51:20;9.50;99.90
43679;DHT22;29279;50.858;4.392;2024-02-21T14:53:45;9.50;99.90
43679;DHT22;29279;50.858;4.392;2024-02-21T14:56:15;9.50;99.90
43679;DHT22;29279;50.858;4.392;2024-02-21T14:58:42;9.50;99.90
43679;DHT22;29279;50.858;4.392;2024-02-21T15:01:08;9.60;99.90
43679;DHT22;29279;50.858;4.392;2024-02-21T15:03:35;9.50;99.90
43679;DHT22;29279;50.858;4.392;2024-02-21T15:06:01;9.60;99.90
43679;DHT22;29279;50.858;4.392;2024-02-21T15:08:27;9.50;99.90
43679;DHT22;29279;50.858;4.392;2024-02-21T15:10:53;9.40;99.90
43679;DHT22;29279;50.858;4.392;2024-02-21T15:13:19;9.40;99.90
43679;DHT22;29279;50.858;4.392;2024-02-21T15:15:46;9.40;99.90
43679;DHT22;29279;50.858;4.392;2024-02-21T15:18:14;9.40;99.90
43679;DHT22;29279;50.858;4.392;2024-02-21T15:20:40;9.40;99.90
43679;DHT22;29279;50.858;4.392;2024-02-21T15:23:06;9.50;99.90
43679;DHT22;29279;50.858;4.392;2024-02-21T15:25:32;9.40;99.90
43679;DHT22;29279;50.858;4.392;2024-02-21T15:27:57;9.50;99.90
43679;DHT22;29279;50.858;4.392;2024-02-21T15:30:24;9.40;99.90
43679;DHT22;29279;50.858;4.392;2024-02-21T15:32:50;9.40;99.90
43679;DHT22;29279;50.858;4.392;2024-02-21T15:35:16;9.50;99.90
43679;DHT22;29279;50.858;4.392;2024-02-21T15:37:42;9.40;99.90
43679;DHT22;29279;50.858;4.392;2024-02-21T15:40:08;9.40;99.90
43679;DHT22;29279;50.858;4.392;2024-02-21T15:42:34;9.40;99.90